Time;durP1;ratioP1;P1;durP2;ratioP2;P2;SDS_P1;SDS_P2;PMS_P1;PMS_P2;Temp;Humidity;BMP_temperature;BMP_pressure;BME280_temperature;BME280_humidity;BME280_pressure;Samples;Min_cycle;Max_cycle;Signal;HPM_P1;HPM_P2
2021/10/22 00:00:35;;;;;;;36.28;17.20;;;;;;;8.10;100.00;97141.88;4965961;28;20101;-62
2021/10/22 00:03:02;;;;;;;32.25;16.20;;;;;;;8.05;100.00;97129.13;4967036;28;20576;-61
2021/10/22 00:05:32;;;;;;;36.65;17.95;;;;;;;7.34;100.00;97054.63;4966296;28;20057;-70
2021/10/22 00:08:00;;;;;;;32.88;16.67;;;;;;;7.04;100.00;97000.19;4966973;28;20103;-69
2021/10/22 00:10:28;;;;;;;30.80;15.60;;;;;;;7.38;100.00;97085.03;4964851;28;20319;-61
2021/10/22 00:12:54;;;;;;;30.48;15.65;;;;;;;7.80;100.00;97115.78;4967109;28;20499;-70
2021/10/22 00:15:21;;;;;;;29.08;15.38;;;;;;;7.52;100.00;97077.97;4966144;28;20054;-61
2021/10/22 00:17:48;;;;;;;32.67;15.48;;;;;;;7.79;100.00;97130.72;4966544;28;20047;-61
2021/10/22 00:20:16;;;;;;;28.00;14.73;;;;;;;7.76;100.00;97114.91;4965105;28;20050;-63
2021/10/22 00:22:43;;;;;;;29.52;13.95;;;;;;;7.90;100.00;97126.31;4966816;28;20683;-61
2021/10/22 00:25:11;;;;;;;26.25;14.48;;;;;;;6.82;100.00;96954.72;4966285;28;20170;-61
2021/10/22 00:27:38;;;;;;;35.15;17.05;;;;;;;7.27;100.00;97065.41;4965056;28;20137;-70
2021/10/22 00:30:05;;;;;;;33.20;16.25;;;;;;;7.31;100.00;97082.88;4964743;28;20452;-62
2021/10/22 00:32:33;;;;;;;31.67;14.82;;;;;;;7.80;100.00;97121.31;4967030;28;20465;-61
2021/10/22 00:34:59;;;;;;;30.00;15.30;;;;;;;7.59;100.00;97094.72;4966135;28;20051;-63
2021/10/22 00:37:26;;;;;;;27.33;13.82;;;;;;;7.68;100.00;97117.44;4965880;28;20051;-60
2021/10/22 00:39:53;;;;;;;30.55;15.70;;;;;;;7.23;100.00;97023.22;4965978;28;20050;-67
2021/10/22 00:42:22;;;;;;;31.50;14.68;;;;;;;7.46;100.00;97068.34;4965696;28;20050;-62
2021/10/22 00:44:51;;;;;;;32.40;16.02;;;;;;;7.87;100.00;97118.75;4964570;28;20095;-69
2021/10/22 00:47:18;;;;;;;35.63;16.38;;;;;;;7.83;100.00;97115.09;4965302;28;20058;-61
2021/10/22 00:49:45;;;;;;;38.72;16.90;;;;;;;7.78;100.00;97107.09;4965980;28;20116;-64
2021/10/22 00:52:15;;;;;;;32.53;15.57;;;;;;;7.38;100.00;97068.50;4965932;28;20510;-69
2021/10/22 00:54:42;;;;;;;34.88;17.42;;;;;;;6.94;100.00;97078.56;4966386;28;20051;-70
2021/10/22 00:57:13;;;;;;;32.45;16.08;;;;;;;7.18;100.00;97039.16;4965884;28;20059;-62
2021/10/22 00:59:40;;;;;;;33.15;16.83;;;;;;;7.37;100.00;97142.09;4964545;28;20050;-61
2021/10/22 01:02:08;;;;;;;34.63;17.55;;;;;;;7.34;100.00;97060.13;4964214;28;20441;-61
2021/10/22 01:04:35;;;;;;;35.92;17.73;;;;;;;7.68;100.00;97122.16;4965853;28;20055;-63
2021/10/22 01:07:02;;;;;;;31.13;15.00;;;;;;;7.60;100.00;97118.38;4965170;28;20561;-70
2021/10/22 01:09:29;;;;;;;35.15;17.45;;;;;;;7.27;100.00;97068.19;4965735;28;20060;-62
2021/10/22 01:11:56;;;;;;;36.65;18.17;;;;;;;7.35;100.00;97078.25;4965158;28;20064;-70
2021/10/22 01:14:23;;;;;;;35.22;16.50;;;;;;;6.90;100.00;96995.06;4964855;28;20046;-70
2021/10/22 01:16:50;;;;;;;33.03;15.88;;;;;;;7.26;100.00;97085.88;4963579;28;20055;-69
2021/10/22 01:19:18;;;;;;;32.47;16.00;;;;;;;7.36;100.00;97096.41;4964149;28;20065;-70
2021/10/22 01:21:47;;;;;;;30.30;15.95;;;;;;;7.11;100.00;97028.72;4964915;28;20046;-69
2021/10/22 01:24:16;;;;;;;25.30;13.60;;;;;;;6.60;100.00;96943.41;4965385;28;20054;-68
2021/10/22 01:26:43;;;;;;;25.27;13.95;;;;;;;7.59;100.00;97108.50;4964985;28;20058;-62
2021/10/22 01:29:10;;;;;;;25.55;13.82;;;;;;;7.55;100.00;97102.09;4965273;28;20082;-62
2021/10/22 01:31:37;;;;;;;27.30;13.52;;;;;;;6.60;100.00;96949.72;4965008;28;20520;-62
2021/10/22 01:34:04;;;;;;;28.55;13.90;;;;;;;7.68;100.00;97109.16;4966049;28;20051;-63
2021/10/22 01:36:33;;;;;;;28.58;14.32;;;;;;;7.32;100.00;97059.69;4964736;28;20060;-70
2021/10/22 01:39:01;;;;;;;29.88;15.02;;;;;;;7.61;100.00;97108.97;4965319;28;20062;-64
2021/10/22 01:41:28;;;;;;;33.20;16.85;;;;;;;6.90;100.00;97006.09;4964737;28;20063;-63
2021/10/22 01:44:00;;;;;;;40.40;18.88;;;;;;;7.61;100.00;97114.50;4965515;28;20065;-61
2021/10/22 01:46:28;;;;;;;31.25;15.43;;;;;;;7.43;100.00;97104.88;4964777;28;20060;-61
2021/10/22 01:48:56;;;;;;;27.33;14.35;;;;;;;7.50;100.00;97107.84;4965370;28;20051;-69
2021/10/22 01:51:22;;;;;;;28.23;14.05;;;;;;;7.49;100.00;97113.72;4965101;28;20055;-64
2021/10/22 01:53:49;;;;;;;28.25;13.63;;;;;;;7.61;100.00;97119.19;4964814;28;20561;-62
2021/10/22 01:56:16;;;;;;;30.88;13.88;;;;;;;7.58;100.00;97115.19;4965576;28;20056;-62
2021/10/22 01:58:43;;;;;;;31.70;14.10;;;;;;;7.45;100.00;97097.06;4964873;28;20060;-66
2021/10/22 02:01:09;;;;;;;27.00;15.10;;;;;;;6.78;100.00;96989.56;4964922;28;20047;-62
2021/10/22 02:03:36;;;;;;;32.72;15.80;;;;;;;7.19;100.00;97085.63;4964726;28;20058;-62
2021/10/22 02:06:03;;;;;;;26.38;13.95;;;;;;;7.40;100.00;97116.59;4964598;28;20069;-62
2021/10/22 02:08:30;;;;;;;29.88;14.25;;;;;;;6.62;100.00;97065.75;4964538;28;20514;-62
2021/10/22 02:10:57;;;;;;;29.75;14.18;;;;;;;6.07;100.00;96960.97;4963125;28;20065;-62
2021/10/22 02:13:24;;;;;;;28.30;15.32;;;;;;;7.31;100.00;97137.97;4964640;28;20046;-70
2021/10/22 02:15:51;;;;;;;32.15;15.73;;;;;;;6.19;100.00;96952.75;4964605;28;20055;-69
2021/10/22 02:18:17;;;;;;;39.65;16.95;;;;;;;7.27;100.00;97130.75;4963548;28;20121;-71
2021/10/22 02:20:44;;;;;;;28.55;15.15;;;;;;;6.57;100.00;97041.22;4962798;28;20055;-70
2021/10/22 02:23:11;;;;;;;26.25;13.20;;;;;;;7.18;100.00;97150.16;4962925;28;20053;-69
2021/10/22 02:25:38;;;;;;;31.65;14.65;;;;;;;6.92;100.00;97108.44;4965270;28;20501;-61
2021/10/22 02:28:04;;;;;;;30.15;15.23;;;;;;;7.14;100.00;97160.28;4964553;28;20493;-61
2021/10/22 02:30:31;;;;;;;29.35;16.63;;;;;;;7.09;100.00;97156.94;4964327;28;20066;-62
2021/10/22 02:32:58;;;;;;;30.40;15.15;;;;;;;6.43;100.00;97139.00;4964522;28;20086;-69
2021/10/22 02:35:25;;;;;;;30.67;13.65;;;;;;;6.77;100.00;97106.34;4964467;28;20456;-62
2021/10/22 02:37:52;;;;;;;28.75;14.82;;;;;;;6.74;100.00;97184.13;4964663;28;20059;-70
2021/10/22 02:40:19;;;;;;;31.88;15.40;;;;;;;6.02;100.00;97051.94;4964548;28;20069;-69
2021/10/22 02:42:45;;;;;;;27.17;14.45;;;;;;;6.76;100.00;97181.00;4964025;28;20059;-70
2021/10/22 02:45:14;;;;;;;28.83;13.90;;;;;;;6.83;100.00;97171.03;4962942;28;20059;-69
2021/10/22 02:47:40;;;;;;;34.40;15.63;;;;;;;4.64;100.00;96834.81;4963101;28;20047;-70
2021/10/22 02:50:08;;;;;;;28.48;13.68;;;;;;;6.75;100.00;97177.44;4967467;28;20541;-61
2021/10/22 02:52:34;;;;;;;30.35;14.15;;;;;;;6.63;100.00;97188.44;4966607;28;20086;-64
2021/10/22 02:55:01;;;;;;;29.58;14.32;;;;;;;6.60;100.00;97156.13;4968558;28;20058;-60
2021/10/22 02:57:28;;;;;;;30.33;14.02;;;;;;;6.75;100.00;97174.69;4967791;28;20062;-70
2021/10/22 02:59:55;;;;;;;27.98;13.88;;;;;;;6.67;100.00;97175.59;4968561;28;20046;-71
2021/10/22 03:02:21;;;;;;;28.70;13.73;;;;;;;6.74;100.00;97178.59;4968105;28;20494;-61
2021/10/22 03:04:48;;;;;;;25.40;14.48;;;;;;;6.60;100.00;97149.78;4967547;28;20066;-60
2021/10/22 03:07:15;;;;;;;35.40;17.70;;;;;;;6.77;100.00;97166.09;4967313;28;20522;-61
2021/10/22 03:09:42;;;;;;;35.78;16.55;;;;;;;5.97;100.00;97054.91;4967737;28;20470;-60
2021/10/22 03:12:09;;;;;;;31.40;14.77;;;;;;;6.69;100.00;97170.56;4966407;28;20059;-60
2021/10/22 03:14:36;;;;;;;33.67;16.08;;;;;;;6.86;100.00;97175.84;4967955;28;20441;-60
2021/10/22 03:17:03;;;;;;;27.48;15.15;;;;;;;6.40;100.00;97110.22;4966648;28;20059;-61
2021/10/22 03:19:29;;;;;;;27.60;14.07;;;;;;;6.35;100.00;97132.47;4966233;28;20133;-69
2021/10/22 03:21:56;;;;;;;28.55;15.68;;;;;;;6.69;100.00;97198.09;4967472;28;20051;-69
2021/10/22 03:24:23;;;;;;;28.73;14.77;;;;;;;6.23;100.00;97112.38;4965802;28;20065;-63
2021/10/22 03:26:50;;;;;;;25.17;14.13;;;;;;;6.64;100.00;97187.28;4967266;28;20058;-61
2021/10/22 03:29:19;;;;;;;30.77;14.32;;;;;;;5.99;100.00;97107.63;4967557;28;20046;-60
2021/10/22 03:31:47;;;;;;;38.38;16.42;;;;;;;6.66;100.00;97193.28;4967411;28;20058;-60
2021/10/22 03:34:15;;;;;;;28.08;15.50;;;;;;;6.49;100.00;97176.16;4967511;28;20050;-60
2021/10/22 03:36:42;;;;;;;32.65;15.85;;;;;;;6.66;100.00;97187.75;4967815;28;20057;-69
2021/10/22 03:39:09;;;;;;;28.20;13.93;;;;;;;6.35;100.00;97134.41;4967217;28;20062;-61
2021/10/22 03:41:36;;;;;;;30.27;15.43;;;;;;;6.83;100.00;97198.56;4965536;28;20069;-69
2021/10/22 03:44:03;;;;;;;28.75;15.48;;;;;;;6.76;100.00;97203.84;4967082;28;20061;-69
2021/10/22 03:46:29;;;;;;;31.30;17.58;;;;;;;6.09;100.00;97129.16;4966892;28;20058;-68
2021/10/22 03:48:57;;;;;;;38.25;18.88;;;;;;;5.96;100.00;97116.50;4967249;28;20050;-61
2021/10/22 03:51:23;;;;;;;44.47;28.08;;;;;;;6.19;100.00;97150.75;4967133;28;20085;-61
2021/10/22 03:53:50;;;;;;;40.38;23.40;;;;;;;5.93;100.00;97142.75;4967272;28;20064;-68
2021/10/22 03:56:17;;;;;;;36.10;21.15;;;;;;;6.26;100.00;97207.97;4966749;28;20051;-60
2021/10/22 03:58:43;;;;;;;37.97;22.27;;;;;;;5.52;100.00;97079.56;4966963;28;20061;-68
2021/10/22 04:01:10;;;;;;;40.58;20.77;;;;;;;6.22;100.00;97166.56;4966959;28;20055;-68
2021/10/22 04:03:37;;;;;;;40.90;20.02;;;;;;;6.26;100.00;97200.50;4966772;28;20066;-68
2021/10/22 04:06:05;;;;;;;41.22;19.50;;;;;;;6.53;100.00;97197.13;4966350;28;20063;-68
2021/10/22 04:08:31;;;;;;;37.38;18.25;;;;;;;6.53;100.00;97199.88;4967049;28;20054;-68
2021/10/22 04:10:59;;;;;;;37.95;17.45;;;;;;;6.44;100.00;97181.88;4966040;28;20157;-69
2021/10/22 04:13:25;;;;;;;34.45;17.63;;;;;;;3.79;100.00;96804.53;4966870;28;20055;-68
2021/10/22 04:15:52;;;;;;;36.17;17.10;;;;;;;6.53;100.00;97194.38;4966245;28;20058;-69
2021/10/22 04:18:19;;;;;;;32.55;15.50;;;;;;;6.31;100.00;97156.28;4966657;28;20062;-69
2021/10/22 04:20:46;;;;;;;36.45;17.73;;;;;;;6.69;100.00;97197.28;4965040;28;20058;-69
2021/10/22 04:23:13;;;;;;;32.22;16.75;;;;;;;5.78;100.00;97137.88;4965281;28;20531;-60
2021/10/22 04:25:40;;;;;;;46.85;18.92;;;;;;;6.11;100.00;97151.63;4965730;28;20498;-68
2021/10/22 04:28:07;;;;;;;41.15;18.60;;;;;;;6.38;100.00;97203.28;4966100;28;20510;-68
2021/10/22 04:30:35;;;;;;;31.23;16.20;;;;;;;6.21;100.00;97148.47;4964403;28;20058;-68
2021/10/22 04:33:02;;;;;;;43.67;19.88;;;;;;;6.56;100.00;97193.69;4966416;28;20449;-68
2021/10/22 04:35:30;;;;;;;48.67;23.60;;;;;;;5.17;100.00;96949.22;4966113;28;20058;-68
2021/10/22 04:40:33;;;;;;;29.17;14.73;;;;;;;6.64;100.00;97211.28;4966030;28;20090;-67
2021/10/22 04:43:05;;;;;;;31.67;15.98;;;;;;;6.21;100.00;97173.22;4966496;28;20055;-69
2021/10/22 04:45:36;;;;;;;43.38;19.05;;;;;;;6.51;100.00;97215.94;4964408;28;20065;-69
2021/10/22 04:48:05;;;;;;;40.45;18.75;;;;;;;6.25;100.00;97189.81;4966216;28;20125;-69
2021/10/22 04:50:32;;;;;;;37.97;18.75;;;;;;;6.34;100.00;97224.34;4965663;28;20061;-69
2021/10/22 04:52:59;;;;;;;51.55;23.40;;;;;;;6.43;100.00;97216.03;4966445;28;20073;-69
2021/10/22 04:55:28;;;;;;;45.78;20.73;;;;;;;6.43;100.00;97216.84;4965832;28;20090;-60
2021/10/22 04:57:54;;;;;;;42.83;20.67;;;;;;;6.11;100.00;97198.38;4966464;28;20057;-63
2021/10/22 05:00:21;;;;;;;43.05;20.30;;;;;;;6.02;100.00;97145.44;4965791;28;20055;-61
2021/10/22 05:02:48;;;;;;;39.97;19.55;;;;;;;6.51;100.00;97217.91;4965746;28;20534;-68
2021/10/22 05:05:16;;;;;;;42.30;21.63;;;;;;;6.67;100.00;97216.88;4965063;28;20053;-61
2021/10/22 05:07:43;;;;;;;47.75;21.88;;;;;;;6.63;100.00;97226.97;4964082;28;20429;-62
2021/10/22 05:10:10;;;;;;;57.45;23.35;;;;;;;6.79;100.00;97216.94;4964794;28;20117;-62
2021/10/22 05:12:38;;;;;;;49.50;22.27;;;;;;;6.76;100.00;97231.38;4963939;28;20493;-68
2021/10/22 05:15:06;;;;;;;48.47;21.27;;;;;;;6.81;100.00;97222.88;4964721;28;20496;-69
2021/10/22 05:17:34;;;;;;;46.10;19.92;;;;;;;6.59;100.00;97193.00;4966092;28;20046;-61
2021/10/22 05:20:03;;;;;;;36.00;18.30;;;;;;;6.27;100.00;97173.78;4965043;28;20476;-61
2021/10/22 05:22:30;;;;;;;45.80;20.52;;;;;;;5.91;100.00;97199.22;4965495;28;20055;-61
2021/10/22 05:24:57;;;;;;;38.58;19.23;;;;;;;6.66;100.00;97229.06;4965335;28;20062;-68
2021/10/22 05:27:23;;;;;;;33.55;16.50;;;;;;;6.65;100.00;97221.94;4965325;28;20062;-61
2021/10/22 05:29:50;;;;;;;34.53;18.10;;;;;;;7.04;100.00;97242.53;4965960;28;20101;-67
2021/10/22 05:32:17;;;;;;;32.65;16.75;;;;;;;6.90;100.00;97231.84;4964603;28;20532;-62
2021/10/22 05:34:44;;;;;;;39.95;20.05;;;;;;;7.29;100.00;97246.91;4965062;28;20061;-69
2021/10/22 05:37:11;;;;;;;42.75;20.10;;;;;;;6.87;100.00;97149.13;4964958;28;20164;-67
2021/10/22 05:39:38;;;;;;;46.20;21.48;;;;;;;7.78;100.00;97253.22;4964004;28;20534;-67
2021/10/22 05:42:07;;;;;;;29.17;15.43;;;;;;;7.84;100.00;97255.38;4965162;28;20054;-66
2021/10/22 05:44:33;;;;;;;28.40;13.27;;;;;;;7.93;100.00;97252.50;4965495;28;20238;-63
2021/10/22 05:47:00;;;;;;;31.67;14.57;;;;;;;8.10;100.00;97252.22;4963158;28;20453;-68
2021/10/22 05:49:27;;;;;;;30.75;14.18;;;;;;;7.88;100.00;97225.16;4963759;28;20101;-67
2021/10/22 05:51:54;;;;;;;26.75;13.88;;;;;;;7.96;100.00;97186.41;4964937;28;20058;-68
2021/10/22 05:54:21;;;;;;;26.60;14.00;;;;;;;8.01;100.00;97161.34;4965158;28;20053;-64
2021/10/22 05:56:49;;;;;;;30.08;16.98;;;;;;;7.80;100.00;97171.75;4964831;28;20065;-60
2021/10/22 05:59:19;;;;;;;42.13;18.63;;;;;;;8.73;98.92;97245.78;4958491;28;20054;-63
2021/10/22 06:01:45;;;;;;;44.33;23.45;;;;;;;8.63;96.77;97243.53;4953717;28;20081;-59
2021/10/22 06:04:12;;;;;;;50.75;25.42;;;;;;;8.92;94.95;97240.38;4963039;28;20059;-65
2021/10/22 06:06:39;;;;;;;60.00;27.38;;;;;;;9.27;94.32;97271.69;4962283;28;20453;-61
2021/10/22 06:09:06;;;;;;;58.97;24.98;;;;;;;6.25;93.96;96769.84;4963916;28;20058;-62
2021/10/22 06:11:33;;;;;;;46.58;24.10;;;;;;;9.61;93.59;97326.25;4963251;28;20055;-64
2021/10/22 06:14:00;;;;;;;32.88;17.70;;;;;;;8.86;95.31;97158.94;4959135;28;20502;-66
2021/10/22 06:16:27;;;;;;;26.95;13.80;;;;;;;9.10;96.05;97169.81;4972619;28;20780;-70
2021/10/22 06:19:00;;;;;;;30.70;15.77;;;;;;;10.00;96.78;97281.00;4951640;28;20059;-63
2021/10/22 06:22:09;;;;;;;29.23;15.07;;;;;;;10.16;92.62;97301.13;4945938;28;20051;-63
2021/10/22 06:24:20;;;;;;;29.23;15.83;;;;;;;10.30;91.70;97262.72;4963744;28;20541;-63
2021/10/22 06:26:47;;;;;;;23.58;13.93;;;;;;;10.60;92.04;97288.69;4965909;28;20065;-65
2021/10/22 06:29:14;;;;;;;30.23;14.88;;;;;;;10.11;90.91;97193.50;4966497;28;20161;-67
2021/10/22 06:31:41;;;;;;;32.92;15.07;;;;;;;9.27;90.09;97058.88;4952913;28;20059;-64
2021/10/22 06:34:09;;;;;;;31.05;13.98;;;;;;;10.86;90.41;97304.63;4966337;28;20118;-65
2021/10/22 06:36:36;;;;;;;28.25;14.65;;;;;;;11.01;89.36;97297.38;4967659;28;20078;-64
2021/10/22 06:39:04;;;;;;;29.13;15.40;;;;;;;11.20;89.44;97300.13;4970408;28;20057;-62
2021/10/22 06:41:32;;;;;;;30.60;14.77;;;;;;;10.79;88.68;97192.84;4966015;28;20541;-67
2021/10/22 06:43:59;;;;;;;29.38;14.55;;;;;;;9.55;87.55;96970.97;4961167;28;20065;-70
2021/10/22 06:46:26;;;;;;;31.67;13.90;;;;;;;10.86;86.72;97145.88;4961070;28;20055;-66
2021/10/22 06:48:54;;;;;;;21.10;13.38;;;;;;;11.49;87.24;97297.50;4968421;28;20059;-63
2021/10/22 06:51:22;;;;;;;36.47;15.32;;;;;;;10.66;89.85;97181.94;4967712;28;20191;-66
2021/10/22 06:53:49;;;;;;;28.70;15.43;;;;;;;10.79;88.98;97137.44;4966231;28;20540;-63
2021/10/22 06:56:15;;;;;;;25.08;13.93;;;;;;;12.02;87.10;97310.31;4966915;28;20051;-67
2021/10/22 06:58:43;;;;;;;23.38;13.02;;;;;;;12.26;86.44;97308.28;4968102;28;20580;-66
2021/10/22 07:01:10;;;;;;;24.65;13.45;;;;;;;12.17;85.09;97278.00;4967303;28;20711;-60
2021/10/22 07:03:43;;;;;;;19.67;10.95;;;;;;;11.95;83.99;97228.88;4967201;28;20062;-62
2021/10/22 07:08:57;;;;;;;31.55;13.02;;;;;;;12.88;83.60;97308.31;4964372;28;20396;-62
2021/10/22 07:11:25;;;;;;;27.42;14.18;;;;;;;12.15;83.44;97163.72;4966930;28;20556;-68
2021/10/22 07:13:54;;;;;;;19.80;11.60;;;;;;;12.63;82.08;97257.19;4953525;28;20416;-64
2021/10/22 07:16:55;;;;;;;23.35;11.95;;;;;;;13.26;81.93;97308.00;4952566;28;20051;-61
2021/10/22 07:19:32;;;;;;;20.67;9.95;;;;;;;13.53;78.77;97312.25;4962726;28;20436;-63
2021/10/22 07:22:05;;;;;;;17.02;11.10;;;;;;;13.10;78.89;97251.78;4954965;28;20502;-62
2021/10/22 07:24:32;;;;;;;20.48;11.07;;;;;;;13.81;79.72;97327.63;4964964;28;20074;-66
2021/10/22 07:27:00;;;;;;;18.70;11.23;;;;;;;13.10;79.35;97160.00;4965391;28;20432;-62
2021/10/22 07:29:28;;;;;;;22.42;11.98;;;;;;;13.61;77.70;97238.78;4982519;28;20133;-64
2021/10/22 07:31:54;;;;;;;22.98;12.73;;;;;;;14.24;76.57;97280.25;4964967;28;20051;-60
2021/10/22 07:34:22;;;;;;;17.63;11.07;;;;;;;14.52;74.82;97285.19;4966023;28;20165;-61
2021/10/22 07:36:50;;;;;;;21.85;10.02;;;;;;;14.88;75.04;97303.69;4966982;28;20062;-64
2021/10/22 07:39:19;;;;;;;18.45;9.90;;;;;;;15.00;74.89;97295.78;4955059;28;20176;-69
2021/10/22 07:42:06;;;;;;;13.48;9.18;;;;;;;14.52;75.24;97210.75;4966556;28;20055;-60
2021/10/22 07:44:50;;;;;;;14.70;9.15;;;;;;;14.95;74.57;97247.94;4966482;28;20047;-62
2021/10/22 07:47:17;;;;;;;12.13;7.72;;;;;;;14.92;72.33;97218.06;4966905;28;20562;-65
2021/10/22 07:49:47;;;;;;;19.35;8.48;;;;;;;15.34;72.74;97287.91;4966658;28;20058;-65
2021/10/22 07:52:22;;;;;;;14.52;9.38;;;;;;;15.04;72.17;97200.94;4959492;28;20423;-69
2021/10/22 07:54:57;;;;;;;14.38;8.60;;;;;;;15.75;71.66;97292.00;4957400;28;20082;-65
2021/10/22 07:57:24;;;;;;;13.85;9.00;;;;;;;15.30;70.73;97194.19;4962226;28;20047;-61
2021/10/22 07:59:51;;;;;;;13.25;8.45;;;;;;;15.40;70.58;97191.44;4966373;28;20043;-60
2021/10/22 08:02:19;;;;;;;12.93;8.13;;;;;;;15.98;71.46;97288.81;4965601;28;20112;-66
2021/10/22 08:04:48;;;;;;;19.15;9.27;;;;;;;15.46;70.62;97201.00;4963957;28;20051;-66
2021/10/22 08:07:20;;;;;;;12.52;8.20;;;;;;;14.08;69.46;96947.44;4961124;28;20067;-65
2021/10/22 08:09:48;;;;;;;14.68;9.30;;;;;;;15.86;68.58;97211.78;4961851;28;20057;-69
2021/10/22 08:12:17;;;;;;;17.52;8.93;;;;;;;16.38;69.84;97277.97;4964777;28;20054;-67
2021/10/22 08:14:46;;;;;;;12.35;9.35;;;;;;;16.29;68.56;97238.47;4960712;28;20536;-62
2021/10/22 08:17:13;;;;;;;12.35;8.00;;;;;;;15.77;69.56;97222.56;4955962;28;20549;-62
2021/10/22 08:19:40;;;;;;;15.77;8.48;;;;;;;16.26;68.73;97232.88;4951598;28;20059;-69
2021/10/22 08:22:27;;;;;;;13.55;8.65;;;;;;;16.51;68.47;97234.44;4961834;28;20047;-64
2021/10/22 08:24:59;;;;;;;17.98;10.43;;;;;;;16.93;65.94;97263.47;4964023;28;20574;-61
2021/10/22 08:27:37;;;;;;;11.57;8.65;;;;;;;16.84;65.98;97330.22;4962852;28;20074;-67
2021/10/22 08:30:08;;;;;;;14.82;9.52;;;;;;;16.93;65.31;97232.69;4964436;28;20055;-64
2021/10/22 08:32:36;;;;;;;13.90;9.35;;;;;;;17.13;63.14;97270.16;4964052;28;20141;-66
2021/10/22 08:35:05;;;;;;;12.75;8.00;;;;;;;16.99;63.10;97236.66;4963068;28;20080;-65
2021/10/22 08:37:33;;;;;;;11.23;8.38;;;;;;;17.22;63.47;97217.31;4963592;28;20074;-62
2021/10/22 08:39:59;;;;;;;14.32;8.25;;;;;;;17.72;59.27;97269.81;4961224;28;20053;-61
2021/10/22 08:42:26;;;;;;;12.60;7.95;;;;;;;17.45;57.50;97220.41;4964774;28;20051;-63
2021/10/22 08:44:54;;;;;;;12.95;8.57;;;;;;;17.87;57.77;97264.91;4964878;28;20072;-61
2021/10/22 08:47:25;;;;;;;11.63;7.95;;;;;;;17.27;57.13;97152.47;4963921;28;20619;-68
2021/10/22 08:49:55;;;;;;;12.55;8.40;;;;;;;18.11;58.66;97277.91;4963884;28;20066;-61
2021/10/22 08:52:22;;;;;;;10.95;7.72;;;;;;;17.68;56.70;97223.41;4962404;28;20069;-62
2021/10/22 08:54:49;;;;;;;11.43;7.95;;;;;;;17.83;58.50;97264.16;4965147;28;20109;-64
2021/10/22 08:57:16;;;;;;;12.50;9.07;;;;;;;17.15;57.80;97105.38;4960983;28;20587;-70
2021/10/22 08:59:42;;;;;;;10.35;7.93;;;;;;;17.89;56.20;97175.59;4964725;28;20066;-67
2021/10/22 09:02:13;;;;;;;10.25;7.25;;;;;;;18.52;55.26;97267.53;4956520;28;20094;-67
2021/10/22 09:04:43;;;;;;;10.40;7.78;;;;;;;18.73;54.97;97256.06;4962761;28;20426;-61
2021/10/22 09:07:18;;;;;;;11.27;7.55;;;;;;;18.40;53.53;97174.69;4991071;28;20078;-63
2021/10/22 09:10:05;;;;;;;13.00;7.65;;;;;;;18.99;54.02;97251.75;4961245;28;20054;-61
2021/10/22 09:12:52;;;;;;;10.70;7.50;;;;;;;18.64;56.06;97252.97;4955195;28;20095;-61
2021/10/22 09:15:26;;;;;;;10.20;8.30;;;;;;;18.85;55.95;97247.09;4963843;28;20437;-63
2021/10/22 09:17:55;;;;;;;9.82;6.65;;;;;;;19.15;55.12;97255.56;4951777;28;20055;-66
2021/10/22 09:20:27;;;;;;;13.30;7.88;;;;;;;18.86;55.48;97265.53;4963956;28;20134;-64
2021/10/22 09:23:02;;;;;;;14.82;8.02;;;;;;;16.40;55.58;96870.16;4963093;28;20051;-67
2021/10/22 09:25:31;;;;;;;11.45;7.68;;;;;;;18.60;55.41;97176.47;4964742;28;20312;-61
2021/10/22 09:28:03;;;;;;;15.00;8.85;;;;;;;19.37;54.68;97251.25;4960515;28;20059;-64
2021/10/22 09:30:46;;;;;;;15.50;8.93;;;;;;;18.72;53.97;97144.22;4964236;28;20230;-65
2021/10/22 09:33:14;;;;;;;10.55;7.50;;;;;;;18.89;55.63;97259.06;4965082;28;20062;-67
2021/10/22 09:35:49;;;;;;;11.38;8.38;;;;;;;18.58;55.01;97159.25;4963045;28;20054;-64
2021/10/22 09:38:27;;;;;;;12.48;8.65;;;;;;;19.24;55.42;97264.25;4962696;28;20505;-65
2021/10/22 09:40:56;;;;;;;10.75;7.47;;;;;;;18.80;54.99;97194.22;4963843;28;20077;-67
2021/10/22 09:43:37;;;;;;;10.98;7.68;;;;;;;19.69;56.01;97247.97;4957328;28;20534;-63
2021/10/22 09:46:18;;;;;;;10.70;7.90;;;;;;;19.78;53.10;97191.19;4946666;28;20635;-68
2021/10/22 09:49:01;;;;;;;9.73;7.03;;;;;;;19.80;51.81;97239.38;4963611;28;20066;-61
2021/10/22 09:51:33;;;;;;;9.98;7.65;;;;;;;20.24;52.44;97241.88;4958304;28;20054;-61
2021/10/22 09:54:07;;;;;;;12.32;7.78;;;;;;;20.20;51.28;97227.09;4977074;28;20129;-62
2021/10/22 09:56:35;;;;;;;8.63;7.10;;;;;;;20.37;51.46;97238.03;4964506;28;20066;-64
2021/10/22 09:59:05;;;;;;;10.07;7.68;;;;;;;20.55;50.75;97184.97;4964248;28;20067;-61
2021/10/22 10:01:38;;;;;;;9.27;7.18;;;;;;;20.49;50.72;97228.13;4964722;28;20058;-64
2021/10/22 10:04:07;;;;;;;13.35;7.22;;;;;;;20.48;50.88;97223.75;4963224;28;20521;-64
2021/10/22 10:06:54;;;;;;;8.88;6.93;;;;;;;20.29;51.04;97228.13;4959151;28;20066;-64
2021/10/22 10:09:26;;;;;;;10.25;7.20;;;;;;;20.08;50.14;97151.69;4956023;28;20043;-63
2021/10/22 10:12:00;;;;;;;8.48;7.10;;;;;;;20.18;51.96;97145.13;4964362;28;20150;-62
2021/10/22 10:14:30;;;;;;;13.68;8.90;;;;;;;20.85;49.37;97220.56;4965097;28;20055;-63
2021/10/22 10:16:58;;;;;;;9.50;7.20;;;;;;;19.25;49.39;97046.75;4964744;28;20536;-63
2021/10/22 10:19:36;;;;;;;23.75;9.20;;;;;;;20.43;48.68;97157.50;4964674;28;20050;-63
2021/10/22 10:22:07;;;;;;;16.60;10.18;;;;;;;20.80;49.42;97224.69;4975489;28;20055;-64
2021/10/22 10:24:42;;;;;;;9.90;7.45;;;;;;;21.21;49.06;97203.75;4962483;28;20061;-63
2021/10/22 10:27:12;;;;;;;11.82;7.30;;;;;;;21.06;48.16;97169.47;4964362;28;20047;-64
2021/10/22 10:29:46;;;;;;;9.25;7.70;;;;;;;20.97;48.04;97205.88;4964386;28;20054;-65
2021/10/22 10:32:19;;;;;;;11.75;7.18;;;;;;;21.44;47.97;97218.53;4963871;28;20058;-66
2021/10/22 10:34:57;;;;;;;;;;;;;;;21.83;46.28;97195.84;4964750;28;20444;-62
2021/10/22 10:37:33;;;;;;;7.32;6.60;;;;;;;22.12;46.06;97193.91;4963851;28;20002;-61
2021/10/22 10:40:10;;;;;;;8.07;7.20;;;;;;;22.18;46.10;97192.13;4963997;28;20059;-63
2021/10/22 10:42:46;;;;;;;8.13;6.60;;;;;;;21.56;44.35;97068.41;4964425;28;20146;-64
2021/10/22 10:45:23;;;;;;;7.82;6.93;;;;;;;22.13;42.52;97187.00;4963514;28;20203;-64
2021/10/22 10:47:58;;;;;;;6.60;5.97;;;;;;;22.03;43.07;97184.47;4962840;28;20051;-64
2021/10/22 10:50:37;;;;;;;7.47;6.15;;;;;;;22.23;41.38;97183.13;4961782;28;20046;-62
2021/10/22 10:53:05;;;;;;;6.07;5.30;;;;;;;21.76;39.95;97173.47;4964473;28;20088;-64
2021/10/22 10:55:34;;;;;;;6.35;5.70;;;;;;;21.87;40.58;97173.19;4963769;28;20061;-64
2021/10/22 10:58:07;;;;;;;6.78;6.03;;;;;;;22.13;41.02;97170.09;4964398;28;20429;-62
2021/10/22 11:00:53;;;;;;;6.40;5.80;;;;;;;22.33;41.18;97161.50;4963490;28;20051;-64
2021/10/22 11:03:41;;;;;;;6.47;5.80;;;;;;;21.42;42.01;97115.91;4958924;28;20046;-65
2021/10/22 11:06:10;;;;;;;6.97;6.28;;;;;;;21.89;43.15;97160.22;4958727;28;20063;-61
2021/10/22 11:08:39;;;;;;;7.35;6.50;;;;;;;21.92;43.42;97165.00;4962159;28;20141;-61
2021/10/22 11:11:15;;;;;;;6.93;6.18;;;;;;;21.76;43.80;97128.34;4966217;28;20047;-61
2021/10/22 11:13:42;;;;;;;8.20;6.35;;;;;;;21.95;43.25;97152.84;4967440;28;20058;-64
2021/10/22 11:16:24;;;;;;;7.30;6.60;;;;;;;21.97;42.67;97150.34;4965197;28;20512;-66
2021/10/22 11:18:57;;;;;;;7.22;5.72;;;;;;;22.15;42.35;97127.31;4966678;28;20142;-63
2021/10/22 11:21:25;;;;;;;8.00;6.15;;;;;;;;;;4953494;28;20137;-62
2021/10/22 11:23:52;;;;;;;8.77;6.47;;;;;;;22.31;43.05;97142.19;4955752;28;20473;-65
2021/10/22 11:26:20;;;;;;;6.63;6.03;;;;;;;22.48;42.09;97132.44;4908358;28;20043;-64
2021/10/22 11:28:52;;;;;;;7.63;6.93;;;;;;;21.34;43.19;97058.91;4932416;29;20047;-62
2021/10/22 11:31:37;;;;;;;10.95;7.05;;;;;;;22.26;42.80;97122.97;4931297;29;20059;-59
2021/10/22 11:34:05;;;;;;;10.05;6.18;;;;;;;22.55;42.62;97116.53;4937009;29;20133;-66
2021/10/22 11:36:33;;;;;;;8.45;6.65;;;;;;;22.88;42.33;97112.34;4927901;29;20506;-64